createdAt,value
2019-03-20T00:00:20.427Z,3.91
2019-03-20T00:02:48.977Z,3.91
2019-03-20T00:05:17.103Z,3.91
2019-03-20T00:07:45.143Z,3.89
2019-03-20T00:10:13.351Z,3.85
2019-03-20T00:12:41.386Z,3.84
2019-03-20T00:15:10.441Z,3.83
2019-03-20T00:17:38.358Z,3.80
2019-03-20T00:20:07.489Z,3.80
2019-03-20T00:22:35.522Z,3.80
2019-03-20T00:25:03.789Z,3.79
2019-03-20T00:27:31.821Z,3.76
2019-03-20T00:30:00.514Z,3.74
2019-03-20T00:32:28.568Z,3.71
2019-03-20T00:35:00.912Z,3.69
2019-03-20T00:37:26.397Z,3.67
2019-03-20T00:39:54.511Z,3.63
2019-03-20T00:42:22.544Z,3.62
2019-03-20T00:44:50.727Z,3.57
2019-03-20T00:47:19.260Z,3.53
2019-03-20T00:49:47.278Z,3.50
2019-03-20T00:52:15.233Z,3.47
2019-03-20T00:54:43.399Z,3.46
2019-03-20T00:57:11.427Z,3.43
2019-03-20T00:59:39.433Z,3.42
2019-03-20T01:02:07.482Z,3.38
2019-03-20T01:04:35.707Z,3.35
2019-03-20T01:07:03.734Z,3.32
2019-03-20T01:09:31.824Z,3.31
2019-03-20T01:11:59.920Z,3.28
2019-03-20T01:14:27.937Z,3.28
2019-03-20T01:16:55.782Z,3.21
2019-03-20T01:19:23.775Z,3.19
2019-03-20T01:21:52.012Z,3.18
2019-03-20T01:24:19.857Z,3.18
2019-03-20T01:26:47.737Z,3.13
2019-03-20T01:29:15.961Z,3.07
2019-03-20T01:31:44.041Z,3.06
2019-03-20T01:34:12.041Z,3.08
2019-03-20T01:36:40.042Z,3.08
2019-03-20T01:39:08.886Z,3.07
2019-03-20T01:41:38.290Z,3.05
2019-03-20T01:44:06.551Z,3.03
2019-03-20T01:46:34.719Z,3.03
2019-03-20T01:49:02.663Z,3.04
2019-03-20T01:51:30.990Z,3.03
2019-03-20T01:53:59.005Z,3.03
2019-03-20T01:56:26.889Z,3.03
2019-03-20T01:58:55.086Z,3.03
2019-03-20T02:01:23.428Z,3.01
2019-03-20T02:03:51.576Z,3.02
2019-03-20T02:06:20.422Z,3.03
2019-03-20T02:08:49.164Z,3.02
2019-03-20T02:11:17.270Z,3.00
2019-03-20T02:13:45.290Z,3.00
2019-03-20T02:16:13.161Z,2.99
2019-03-20T02:18:41.082Z,2.97
2019-03-20T02:21:09.261Z,2.96
2019-03-20T02:23:37.212Z,2.93
2019-03-20T02:26:05.339Z,2.91
2019-03-20T02:28:33.346Z,2.90
2019-03-20T02:31:01.995Z,2.89
2019-03-20T02:33:31.204Z,2.89
2019-03-20T02:35:59.287Z,2.88
2019-03-20T02:38:27.098Z,2.88
2019-03-20T02:40:55.080Z,2.86
2019-03-20T02:43:23.493Z,2.86
2019-03-20T02:45:51.546Z,2.84
2019-03-20T02:48:19.518Z,2.82
2019-03-20T02:50:47.598Z,2.82
2019-03-20T02:53:15.660Z,2.80
2019-03-20T02:55:44.642Z,2.80
2019-03-20T02:58:12.600Z,2.79
2019-03-20T03:00:40.705Z,2.78
2019-03-20T03:03:08.756Z,2.77
2019-03-20T03:05:36.836Z,2.74
2019-03-20T03:08:05.038Z,2.72
2019-03-20T03:10:32.963Z,2.70
2019-03-20T03:13:00.886Z,2.68
2019-03-20T03:15:29.001Z,2.68
2019-03-20T03:17:57.128Z,2.68
2019-03-20T03:20:25.200Z,2.68
2019-03-20T03:22:53.237Z,2.67
2019-03-20T03:25:21.282Z,2.66
2019-03-20T03:27:49.484Z,2.65
2019-03-20T03:32:51.795Z,2.63
2019-03-20T03:35:20.435Z,2.60
2019-03-20T03:37:49.621Z,2.57
2019-03-20T03:40:17.720Z,2.55
2019-03-20T03:42:46.671Z,2.56
2019-03-20T03:45:14.804Z,2.56
2019-03-20T03:47:42.807Z,2.55
2019-03-20T03:50:11.294Z,2.55
2019-03-20T03:52:39.520Z,2.55
2019-03-20T03:55:07.674Z,2.55
2019-03-20T03:57:36.094Z,2.51
2019-03-20T04:00:05.108Z,2.50
2019-03-20T04:02:33.218Z,2.48
2019-03-20T04:05:01.268Z,2.45
2019-03-20T04:07:29.358Z,2.45
2019-03-20T04:09:57.409Z,2.44
2019-03-20T04:12:25.934Z,2.43
2019-03-20T04:14:53.997Z,2.42
2019-03-20T04:17:26.657Z,2.41
2019-03-20T04:19:54.581Z,2.38
2019-03-20T04:22:22.683Z,2.37
2019-03-20T04:24:50.766Z,2.36
2019-03-20T04:27:18.878Z,2.34
2019-03-20T04:29:46.856Z,2.34
2019-03-20T04:32:14.972Z,2.34
2019-03-20T04:34:43.079Z,2.33
2019-03-20T04:37:11.166Z,2.32
2019-03-20T04:39:40.249Z,2.30
2019-03-20T04:42:08.266Z,2.29
2019-03-20T04:44:36.501Z,2.28
2019-03-20T04:47:04.675Z,2.28
2019-03-20T04:49:32.728Z,2.28
2019-03-20T04:52:01.303Z,2.28
2019-03-20T04:54:29.275Z,2.28
2019-03-20T04:56:57.873Z,2.24
2019-03-20T04:59:25.941Z,2.22
2019-03-20T05:01:54.068Z,2.18
2019-03-20T05:04:21.924Z,2.17
2019-03-20T05:06:58.314Z,2.14
2019-03-20T05:09:20.014Z,2.13
2019-03-20T05:11:47.935Z,2.13
2019-03-20T05:14:16.046Z,2.11
2019-03-20T05:16:44.082Z,2.10
2019-03-20T05:19:12.144Z,2.11
2019-03-20T05:21:40.180Z,2.10
2019-03-20T05:24:08.297Z,2.08
2019-03-20T05:26:36.232Z,2.06
2019-03-20T05:29:04.357Z,2.07
2019-03-20T05:31:32.360Z,2.06
2019-03-20T05:34:00.577Z,2.06
2019-03-20T05:36:28.648Z,2.08
2019-03-20T05:38:56.866Z,2.12
2019-03-20T05:41:24.864Z,2.16
2019-03-20T05:43:52.854Z,2.16
2019-03-20T05:46:20.878Z,2.16
2019-03-20T05:48:49.102Z,2.17
2019-03-20T05:51:16.974Z,2.21
2019-03-20T05:53:45.014Z,2.27
2019-03-20T05:56:13.049Z,2.30
2019-03-20T05:58:41.068Z,2.37
2019-03-20T06:01:09.094Z,2.40
2019-03-20T06:03:37.131Z,2.42
2019-03-20T06:06:05.098Z,2.41
2019-03-20T06:08:33.502Z,2.43
2019-03-20T06:11:01.667Z,2.47
2019-03-20T06:13:29.773Z,2.54
2019-03-20T06:15:59.869Z,2.56
2019-03-20T06:18:27.765Z,2.63
2019-03-20T06:20:55.812Z,2.67
2019-03-20T06:23:23.902Z,2.74
2019-03-20T06:25:51.944Z,2.79
2019-03-20T06:28:20.065Z,2.86
2019-03-20T06:30:48.124Z,2.90
2019-03-20T06:33:16.195Z,2.97
2019-03-20T06:35:44.068Z,3.00
2019-03-20T06:38:12.211Z,3.04
2019-03-20T06:40:40.289Z,3.07
2019-03-20T06:43:08.282Z,3.12
2019-03-20T06:45:36.299Z,3.16
2019-03-20T06:48:04.467Z,3.26
2019-03-20T06:50:32.507Z,3.30
2019-03-20T06:53:01.385Z,3.39
2019-03-20T06:55:30.301Z,3.43
2019-03-20T06:57:58.231Z,3.55
2019-03-20T07:00:49.253Z,3.60
2019-03-20T07:03:41.579Z,3.67
2019-03-20T07:06:33.040Z,3.76
2019-03-20T07:09:31.875Z,3.85
2019-03-20T07:11:59.823Z,3.96
2019-03-20T07:14:27.803Z,4.05
2019-03-20T07:16:55.748Z,4.17
2019-03-20T07:19:24.450Z,4.30
2019-03-20T07:21:52.529Z,4.38
2019-03-20T07:24:20.813Z,4.48
2019-03-20T07:26:48.747Z,4.67
2019-03-20T07:29:16.849Z,4.75
2019-03-20T07:31:44.899Z,4.88
2019-03-20T07:34:13.087Z,4.97
2019-03-20T07:36:41.225Z,5.05
2019-03-20T07:39:09.758Z,5.16
2019-03-20T07:41:37.794Z,5.24
2019-03-20T07:44:05.901Z,5.38
2019-03-20T07:46:34.310Z,5.47
2019-03-20T07:49:02.434Z,5.57
2019-03-20T07:51:30.409Z,5.64
2019-03-20T07:53:58.562Z,5.78
2019-03-20T07:56:26.657Z,5.93
2019-03-20T07:58:54.859Z,5.99
2019-03-20T08:01:22.952Z,6.07
2019-03-20T08:03:51.000Z,6.14
2019-03-20T08:06:19.023Z,6.21
2019-03-20T08:08:47.224Z,6.30
2019-03-20T08:11:18.483Z,6.64
2019-03-20T08:13:46.500Z,7.37
2019-03-20T08:16:15.195Z,7.98
2019-03-20T08:18:43.260Z,8.57
2019-03-20T08:21:11.281Z,8.88
2019-03-20T08:23:39.333Z,9.23
2019-03-20T08:26:07.584Z,9.54
2019-03-20T08:28:36.641Z,9.28
2019-03-20T08:31:05.236Z,9.03
2019-03-20T08:33:33.424Z,8.90
2019-03-20T08:36:03.566Z,8.76
2019-03-20T08:38:32.163Z,8.64
2019-03-20T08:41:00.295Z,8.68
2019-03-20T08:43:30.762Z,8.67
2019-03-20T08:46:01.086Z,8.63
2019-03-20T08:48:29.046Z,8.64
2019-03-20T08:50:57.081Z,8.63
2019-03-20T08:53:25.350Z,8.70
2019-03-20T08:55:53.566Z,8.75
2019-03-20T08:58:21.621Z,8.81
2019-03-20T09:00:49.837Z,8.93
2019-03-20T09:03:18.238Z,9.03
2019-03-20T09:05:46.595Z,9.02
2019-03-20T09:08:14.626Z,9.18
2019-03-20T09:10:42.784Z,9.32
2019-03-20T09:13:10.825Z,9.49
2019-03-20T09:15:39.061Z,9.55
2019-03-20T09:18:07.375Z,9.61
2019-03-20T09:20:35.577Z,9.74
2019-03-20T09:23:03.862Z,9.85
2019-03-20T09:25:32.895Z,10.00
2019-03-20T09:28:00.933Z,9.95
2019-03-20T09:30:28.945Z,10.04
2019-03-20T09:32:57.647Z,10.09
2019-03-20T09:35:25.861Z,10.18
2019-03-20T09:37:53.796Z,10.21
2019-03-20T09:40:23.627Z,10.36
2019-03-20T09:42:53.893Z,10.33
2019-03-20T09:45:23.025Z,10.50
2019-03-20T09:47:51.766Z,10.69
2019-03-20T09:50:20.134Z,10.84
2019-03-20T09:52:50.077Z,10.85
2019-03-20T09:55:18.668Z,10.83
2019-03-20T09:57:46.743Z,10.92
2019-03-20T10:00:22.154Z,11.03
2019-03-20T10:02:50.264Z,11.04
2019-03-20T10:05:18.419Z,11.11
2019-03-20T10:07:46.551Z,11.04
2019-03-20T10:10:19.173Z,10.91
2019-03-20T10:12:47.270Z,10.97
2019-03-20T10:15:15.834Z,11.07
2019-03-20T10:17:43.981Z,11.11
2019-03-20T10:20:13.721Z,11.23
2019-03-20T10:22:41.876Z,11.34
2019-03-20T10:25:09.919Z,11.33
2019-03-20T10:27:38.053Z,11.31
2019-03-20T10:30:08.662Z,11.33
2019-03-20T10:32:36.787Z,11.46
2019-03-20T10:35:06.053Z,11.56
2019-03-20T10:37:34.180Z,11.69
2019-03-20T10:40:02.216Z,11.87
2019-03-20T10:42:30.325Z,11.96
2019-03-20T10:44:58.371Z,12.10
2019-03-20T10:47:26.526Z,12.12
2019-03-20T10:49:54.557Z,12.09
2019-03-20T10:52:22.460Z,12.19
2019-03-20T10:54:50.368Z,12.26
2019-03-20T10:57:18.460Z,12.48
2019-03-20T10:59:46.523Z,12.62
2019-03-20T11:02:14.632Z,12.71
2019-03-20T11:04:42.604Z,12.83
2019-03-20T11:07:10.683Z,12.64
2019-03-20T11:09:38.744Z,12.58
2019-03-20T11:12:06.768Z,12.38
2019-03-20T11:14:34.798Z,12.27
2019-03-20T11:17:02.942Z,12.29
2019-03-20T11:19:30.917Z,12.60
2019-03-20T11:21:59.012Z,12.84
2019-03-20T11:24:27.085Z,13.00
2019-03-20T11:26:55.102Z,13.32
2019-03-20T11:29:23.217Z,13.60
2019-03-20T11:31:51.354Z,13.89
2019-03-20T11:34:19.449Z,14.13
2019-03-20T11:36:47.659Z,14.06
2019-03-20T11:39:16.399Z,14.30
2019-03-20T11:41:44.474Z,14.30
2019-03-20T11:44:12.483Z,14.44
2019-03-20T11:46:40.578Z,14.45
2019-03-20T11:49:08.552Z,14.42
2019-03-20T11:51:36.573Z,14.36
2019-03-20T11:54:04.723Z,14.47
2019-03-20T11:56:32.865Z,14.54
2019-03-20T11:59:00.912Z,14.54
2019-03-20T12:01:28.947Z,14.54
2019-03-20T12:03:56.967Z,14.23
2019-03-20T12:06:24.849Z,14.33
2019-03-20T12:08:52.941Z,14.33
2019-03-20T12:11:21.442Z,14.48
2019-03-20T12:13:49.803Z,14.46
2019-03-20T12:16:17.652Z,14.46
2019-03-20T12:18:45.824Z,14.71
2019-03-20T12:21:13.877Z,15.18
2019-03-20T12:23:41.881Z,15.18
2019-03-20T12:26:09.934Z,15.30
2019-03-20T12:28:37.953Z,15.17
2019-03-20T12:31:07.818Z,14.93
2019-03-20T12:33:35.903Z,15.34
2019-03-20T12:36:04.067Z,15.76
2019-03-20T12:38:32.229Z,15.79
2019-03-20T12:41:00.772Z,15.14
2019-03-20T12:43:28.856Z,14.88
2019-03-20T12:45:56.915Z,14.55
2019-03-20T12:48:26.314Z,14.48
2019-03-20T12:50:54.332Z,14.68
2019-03-20T12:53:23.774Z,14.86
2019-03-20T12:55:51.802Z,14.95
2019-03-20T12:58:19.794Z,14.98
2019-03-20T13:03:15.371Z,14.45
2019-03-20T13:05:43.565Z,14.37
2019-03-20T13:08:21.288Z,14.45
2019-03-20T13:10:49.405Z,14.36
2019-03-20T13:13:19.288Z,14.32
2019-03-20T13:15:47.971Z,13.89
2019-03-20T13:18:16.418Z,13.90
2019-03-20T13:20:44.633Z,13.79
2019-03-20T13:23:14.308Z,13.56
2019-03-20T13:25:42.872Z,13.35
2019-03-20T13:28:11.162Z,12.94
2019-03-20T13:30:42.618Z,13.46
2019-03-20T13:33:10.757Z,14.07
2019-03-20T13:35:38.912Z,14.07
2019-03-20T13:38:07.930Z,14.50
2019-03-20T13:40:36.010Z,14.81
2019-03-20T13:43:04.277Z,15.07
2019-03-20T13:45:32.374Z,15.26
2019-03-20T13:48:00.435Z,15.34
2019-03-20T13:50:28.477Z,15.50
2019-03-20T13:52:56.577Z,15.55
2019-03-20T13:55:24.618Z,15.84
2019-03-20T13:58:23.225Z,15.94
2019-03-20T14:00:51.877Z,15.93
2019-03-20T14:03:20.589Z,15.92
2019-03-20T14:05:48.543Z,15.97
2019-03-20T14:08:16.650Z,15.84
2019-03-20T14:10:50.311Z,15.86
2019-03-20T14:13:14.564Z,15.89
2019-03-20T14:15:43.433Z,15.76
2019-03-20T14:18:11.414Z,15.84
2019-03-20T14:20:40.157Z,15.79
2019-03-20T14:23:08.045Z,15.94
2019-03-20T14:25:36.027Z,16.09
2019-03-20T14:28:04.085Z,16.02
2019-03-20T14:30:32.240Z,16.11
2019-03-20T14:33:00.278Z,16.10
2019-03-20T14:35:28.492Z,16.19
2019-03-20T14:37:56.616Z,16.23
2019-03-20T14:40:35.418Z,16.15
2019-03-20T14:42:56.325Z,16.03
2019-03-20T14:45:24.419Z,15.94
2019-03-20T14:47:52.900Z,15.98
2019-03-20T14:50:22.827Z,15.71
2019-03-20T14:52:50.873Z,15.76
2019-03-20T14:55:19.128Z,15.73
2019-03-20T14:57:47.200Z,15.73
2019-03-20T15:00:19.931Z,15.70
2019-03-20T15:02:48.028Z,15.77
2019-03-20T15:05:16.260Z,15.81
2019-03-20T15:07:44.327Z,15.90
2019-03-20T15:10:14.646Z,16.04
2019-03-20T15:12:49.592Z,16.04
2019-03-20T15:15:47.304Z,16.04
2019-03-20T15:18:15.222Z,16.22
2019-03-20T15:20:43.329Z,16.20
2019-03-20T15:23:11.266Z,16.03
2019-03-20T15:25:39.375Z,15.98
2019-03-20T15:28:07.396Z,15.84
2019-03-20T15:30:35.518Z,15.84
2019-03-20T15:33:03.688Z,15.84
2019-03-20T15:35:31.696Z,15.83
2019-03-20T15:37:59.686Z,15.80
2019-03-20T15:40:27.753Z,15.55
2019-03-20T15:42:55.801Z,15.55
2019-03-20T15:45:23.958Z,15.64
2019-03-20T15:47:52.066Z,15.57
2019-03-20T15:50:20.352Z,15.33
2019-03-20T15:52:48.445Z,15.36
2019-03-20T15:55:19.417Z,15.36
2019-03-20T15:57:47.362Z,15.35
2019-03-20T16:00:16.967Z,15.37
2019-03-20T16:02:45.317Z,15.34
2019-03-20T16:05:13.445Z,15.14
2019-03-20T16:07:41.817Z,15.14
2019-03-20T16:10:12.772Z,15.08
2019-03-20T16:12:40.919Z,14.94
2019-03-20T16:15:13.166Z,14.87
2019-03-20T16:17:42.029Z,14.85
2019-03-20T16:20:10.362Z,14.72
2019-03-20T16:22:38.388Z,14.55
2019-03-20T16:25:06.809Z,14.55
2019-03-20T16:27:34.892Z,14.54
2019-03-20T16:30:04.371Z,14.47
2019-03-20T16:32:32.433Z,14.44
2019-03-20T16:35:01.263Z,14.36
2019-03-20T16:37:29.383Z,14.30
2019-03-20T16:39:57.407Z,14.29
2019-03-20T16:42:25.470Z,14.22
2019-03-20T16:44:53.566Z,14.17
2019-03-20T16:47:21.687Z,14.06
2019-03-20T16:49:49.773Z,13.91
2019-03-20T16:52:17.875Z,13.78
2019-03-20T16:54:45.982Z,13.67
2019-03-20T16:57:13.928Z,13.59
2019-03-20T16:59:42.001Z,13.51
2019-03-20T17:02:10.122Z,13.38
2019-03-20T17:04:38.110Z,13.26
2019-03-20T17:07:06.364Z,13.16
2019-03-20T17:09:34.395Z,13.06
2019-03-20T17:12:02.633Z,12.96
2019-03-20T17:14:30.691Z,12.88
2019-03-20T17:17:00.901Z,12.82
2019-03-20T17:19:28.835Z,12.72
2019-03-20T17:21:56.888Z,12.67
2019-03-20T17:24:24.839Z,12.63
2019-03-20T17:26:53.185Z,12.46
2019-03-20T17:29:21.222Z,12.46
2019-03-20T17:31:49.390Z,12.44
2019-03-20T17:34:17.479Z,12.41
2019-03-20T17:36:46.102Z,12.33
2019-03-20T17:39:14.173Z,12.33
2019-03-20T17:41:42.983Z,12.27
2019-03-20T17:44:11.042Z,12.22
2019-03-20T17:46:39.531Z,12.16
2019-03-20T17:49:07.654Z,12.11
2019-03-20T17:51:35.727Z,12.02
2019-03-20T17:54:03.947Z,12.02
2019-03-20T17:56:32.040Z,11.96
2019-03-20T17:59:00.379Z,11.89
2019-03-20T18:01:28.439Z,11.83
2019-03-20T18:03:56.422Z,11.69
2019-03-20T18:06:24.472Z,11.70
2019-03-20T18:08:52.545Z,11.65
2019-03-20T18:11:20.810Z,11.63
2019-03-20T18:13:48.975Z,11.63
2019-03-20T18:16:16.999Z,11.56
2019-03-20T18:18:48.117Z,11.43
2019-03-20T18:21:16.339Z,11.31
2019-03-20T18:23:45.292Z,11.31
2019-03-20T18:26:13.479Z,11.23
2019-03-20T18:28:41.612Z,11.17
2019-03-20T18:31:09.807Z,11.07
2019-03-20T18:33:37.642Z,10.98
2019-03-20T18:36:05.807Z,10.98
2019-03-20T18:38:33.868Z,10.91
2019-03-20T18:41:01.842Z,10.91
2019-03-20T18:43:30.592Z,10.82
2019-03-20T18:45:58.723Z,10.82
2019-03-20T18:48:29.848Z,10.79
2019-03-20T18:50:57.812Z,10.77
2019-03-20T18:53:26.041Z,10.74
2019-03-20T18:55:55.296Z,10.69
2019-03-20T18:58:23.340Z,10.63
2019-03-20T19:00:51.330Z,10.52
2019-03-20T19:03:20.612Z,10.45
2019-03-20T19:05:58.254Z,10.35
2019-03-20T19:08:26.496Z,10.23
2019-03-20T19:10:54.656Z,10.16
2019-03-20T19:13:24.478Z,10.16
2019-03-20T19:15:52.627Z,10.07
2019-03-20T19:18:20.917Z,9.99
2019-03-20T19:20:48.976Z,9.95
2019-03-20T19:23:17.106Z,9.89
2019-03-20T19:25:45.194Z,9.84
2019-03-20T19:28:13.309Z,9.74
2019-03-20T19:30:42.668Z,9.73
2019-03-20T19:33:10.762Z,9.62
2019-03-20T19:35:38.832Z,9.54
2019-03-20T19:38:07.096Z,9.49
2019-03-20T19:40:35.751Z,9.46
2019-03-20T19:43:05.569Z,9.38
2019-03-20T19:45:34.386Z,9.33
2019-03-20T19:48:02.657Z,9.28
2019-03-20T19:50:31.108Z,9.20
2019-03-20T19:52:59.307Z,9.18
2019-03-20T19:55:27.403Z,9.13
2019-03-20T19:57:55.609Z,9.11
2019-03-20T20:00:23.738Z,9.07
2019-03-20T20:02:52.106Z,9.05
2019-03-20T20:05:20.213Z,9.46
2019-03-20T20:07:48.358Z,9.56
2019-03-20T20:10:16.675Z,9.53
2019-03-20T20:12:45.728Z,9.45
2019-03-20T20:15:16.520Z,9.35
2019-03-20T20:17:46.884Z,9.24
2019-03-20T20:20:16.125Z,9.13
2019-03-20T20:22:46.536Z,9.38
2019-03-20T20:25:14.708Z,9.35
2019-03-20T20:27:43.469Z,9.24
2019-03-20T20:30:13.687Z,9.12
2019-03-20T20:32:44.210Z,9.23
2019-03-20T20:35:12.559Z,9.20
2019-03-20T20:37:40.652Z,9.38
2019-03-20T20:40:10.662Z,9.28
2019-03-20T20:42:42.968Z,9.15
2019-03-20T20:45:09.396Z,9.00
2019-03-20T20:47:38.169Z,8.88
2019-03-20T20:50:06.689Z,8.77
2019-03-20T20:52:35.047Z,8.70
2019-03-20T20:55:03.271Z,8.61
2019-03-20T20:57:31.261Z,8.54
2019-03-20T20:59:59.456Z,8.46
2019-03-20T21:02:27.339Z,8.40
2019-03-20T21:04:55.365Z,8.33
2019-03-20T21:07:23.315Z,8.28
2019-03-20T21:09:51.511Z,8.24
2019-03-20T21:12:19.530Z,8.21
2019-03-20T21:14:47.743Z,8.15
2019-03-20T21:17:22.380Z,8.11
2019-03-20T21:19:51.210Z,8.09
2019-03-20T21:23:19.049Z,8.07
2019-03-20T21:25:47.734Z,8.05
2019-03-20T21:28:57.456Z,8.01
2019-03-20T21:31:33.186Z,8.01
2019-03-20T21:34:58.998Z,7.96
2019-03-20T21:38:14.191Z,7.93
2019-03-20T21:41:23.706Z,7.88
2019-03-20T21:44:31.646Z,7.86
2019-03-20T21:47:35.287Z,7.81
2019-03-20T21:51:02.728Z,7.76
2019-03-20T21:53:46.786Z,7.73
2019-03-20T21:56:25.430Z,7.69
2019-03-20T21:59:02.280Z,7.65
2019-03-20T22:02:11.389Z,7.60
2019-03-20T22:04:39.882Z,7.57
2019-03-20T22:07:09.294Z,7.51
2019-03-20T22:10:34.049Z,7.51
2019-03-20T22:13:29.193Z,7.51
2019-03-20T22:16:33.115Z,7.49
2019-03-20T22:19:53.354Z,7.48
2019-03-20T22:22:58.434Z,7.46
2019-03-20T22:26:03.485Z,7.43
2019-03-20T22:29:03.526Z,7.36
2019-03-20T22:31:33.049Z,7.33
2019-03-20T22:34:37.172Z,7.28
2019-03-20T22:37:05.719Z,7.25
2019-03-20T22:40:18.655Z,7.20
2019-03-20T22:43:00.333Z,7.23
2019-03-20T22:46:08.331Z,7.16
2019-03-20T22:49:35.824Z,7.13
2019-03-20T22:52:36.167Z,7.08
2019-03-20T22:55:37.913Z,7.04
2019-03-20T22:58:44.032Z,7.04
2019-03-20T23:01:42.609Z,7.00
2019-03-20T23:04:15.072Z,6.97
2019-03-20T23:06:43.770Z,6.94
2019-03-20T23:09:12.409Z,6.90
2019-03-20T23:11:40.967Z,6.88
2019-03-20T23:14:10.439Z,6.85
2019-03-20T23:16:39.021Z,6.82
2019-03-20T23:19:07.631Z,6.76
2019-03-20T23:21:36.143Z,6.75
2019-03-20T23:24:04.792Z,6.74
2019-03-20T23:26:33.280Z,6.75
2019-03-20T23:29:04.670Z,6.70
2019-03-20T23:31:33.309Z,6.64
2019-03-20T23:34:01.860Z,6.58
2019-03-20T23:36:30.367Z,6.59
2019-03-20T23:38:58.925Z,6.58
2019-03-20T23:41:27.542Z,6.53
2019-03-20T23:43:58.227Z,6.51
2019-03-20T23:46:26.694Z,6.48
2019-03-20T23:49:01.653Z,6.49
2019-03-20T23:51:30.216Z,6.50
2019-03-20T23:53:58.809Z,6.50
2019-03-20T23:56:29.299Z,6.47
2019-03-20T23:58:57.992Z,6.43
